createdAt,value
2022-08-25T00:02:03.211Z,14.97
2022-08-25T00:04:31.662Z,15.02
2022-08-25T00:07:03.121Z,14.97
2022-08-25T00:09:31.647Z,14.94
2022-08-25T00:11:59.097Z,14.85
2022-08-25T00:14:35.278Z,14.83
2022-08-25T00:17:02.393Z,14.76
2022-08-25T00:19:32.273Z,14.70
2022-08-25T00:21:59.466Z,14.60
2022-08-25T00:24:26.893Z,14.65
2022-08-25T00:26:56.493Z,14.75
2022-08-25T00:29:26.215Z,14.72
2022-08-25T00:31:54.572Z,14.68
2022-08-25T00:34:25.693Z,14.50
2022-08-25T00:36:53.024Z,14.53
2022-08-25T00:39:22.063Z,14.57
2022-08-25T00:41:51.163Z,14.48
2022-08-25T00:44:18.969Z,14.51
2022-08-25T00:46:53.676Z,14.61
2022-08-25T00:49:25.366Z,14.62
2022-08-25T00:52:11.342Z,14.47
2022-08-25T00:54:42.982Z,14.43
2022-08-25T00:57:11.501Z,14.46
2022-08-25T00:59:38.212Z,14.51
2022-08-25T01:02:07.867Z,14.51
2022-08-25T01:04:37.787Z,14.50
2022-08-25T01:07:05.432Z,14.50
2022-08-25T01:09:32.902Z,14.39
2022-08-25T01:12:01.313Z,14.31
2022-08-25T01:14:31.610Z,14.25
2022-08-25T01:16:59.550Z,14.13
2022-08-25T01:19:28.838Z,14.14
2022-08-25T01:21:56.073Z,14.14
2022-08-25T01:24:55.051Z,14.21
2022-08-25T01:27:21.833Z,14.30
2022-08-25T01:29:49.347Z,14.12
2022-08-25T01:32:16.157Z,14.15
2022-08-25T01:34:45.093Z,14.19
2022-08-25T01:37:14.052Z,14.09
2022-08-25T01:39:42.156Z,14.14
2022-08-25T01:42:47.233Z,14.06
2022-08-25T01:45:14.532Z,14.01
2022-08-25T01:47:41.310Z,13.99
2022-08-25T01:50:08.293Z,13.90
2022-08-25T01:52:51.218Z,13.92
2022-08-25T01:55:18.698Z,13.97
2022-08-25T01:57:45.552Z,13.90
2022-08-25T02:00:14.603Z,13.85
2022-08-25T02:02:42.895Z,13.86
2022-08-25T02:05:13.333Z,13.82
2022-08-25T02:07:40.754Z,13.75
2022-08-25T02:10:07.922Z,13.77
2022-08-25T02:12:36.561Z,13.78
2022-08-25T02:15:05.721Z,13.79
2022-08-25T02:17:32.476Z,13.67
2022-08-25T02:19:59.581Z,13.71
2022-08-25T02:22:26.762Z,13.68
2022-08-25T02:24:53.690Z,13.70
2022-08-25T02:27:20.391Z,13.77
2022-08-25T02:29:47.478Z,13.70
2022-08-25T02:32:14.301Z,13.68
2022-08-25T02:34:41.679Z,13.65
2022-08-25T02:37:08.762Z,13.71
2022-08-25T02:39:35.969Z,13.64
2022-08-25T02:42:03.542Z,13.69
2022-08-25T02:44:31.867Z,13.52
2022-08-25T02:46:58.943Z,13.61
2022-08-25T02:49:25.692Z,13.51
2022-08-25T02:51:52.622Z,13.47
2022-08-25T02:54:19.333Z,13.54
2022-08-25T02:56:46.122Z,13.60
2022-08-25T02:59:12.831Z,13.55
2022-08-25T03:01:39.610Z,13.50
2022-08-25T03:04:07.322Z,13.41
2022-08-25T03:06:34.281Z,13.42
2022-08-25T03:09:01.604Z,13.41
2022-08-25T03:11:28.697Z,13.16
2022-08-25T03:13:56.580Z,13.26
2022-08-25T03:16:27.888Z,13.25
2022-08-25T03:18:54.982Z,13.30
2022-08-25T03:21:22.721Z,13.46
2022-08-25T03:23:49.491Z,13.47
2022-08-25T03:26:42.513Z,13.40
2022-08-25T03:29:10.560Z,13.29
2022-08-25T03:31:38.267Z,13.17
2022-08-25T03:34:05.522Z,13.25
2022-08-25T03:36:32.301Z,13.22
2022-08-25T03:39:00.414Z,13.20
2022-08-25T03:41:29.931Z,13.17
2022-08-25T03:43:57.472Z,13.26
2022-08-25T03:46:35.598Z,13.10
2022-08-25T03:49:04.784Z,13.10
2022-08-25T03:51:37.423Z,13.22
2022-08-25T03:54:05.039Z,13.02
2022-08-25T03:56:31.822Z,12.95
2022-08-25T03:58:58.789Z,13.06
2022-08-25T04:01:26.444Z,13.10
2022-08-25T04:03:53.542Z,13.06
2022-08-25T04:06:20.638Z,13.13
2022-08-25T04:08:47.792Z,13.22
2022-08-25T04:11:19.833Z,13.16
2022-08-25T04:13:47.601Z,13.15
2022-08-25T04:16:16.546Z,13.24
2022-08-25T04:18:43.468Z,13.23
2022-08-25T04:21:11.224Z,13.23
2022-08-25T04:23:40.664Z,13.25
2022-08-25T04:26:11.905Z,13.25
2022-08-25T04:28:38.879Z,13.21
2022-08-25T04:31:09.809Z,13.04
2022-08-25T04:33:37.252Z,13.01
2022-08-25T04:36:10.038Z,12.94
2022-08-25T04:38:39.964Z,12.98
2022-08-25T04:41:08.190Z,13.03
2022-08-25T04:43:35.510Z,13.09
2022-08-25T04:46:11.296Z,13.14
2022-08-25T04:48:39.994Z,13.08
2022-08-25T04:51:07.635Z,13.18
2022-08-25T04:53:34.953Z,13.28
2022-08-25T04:56:03.811Z,13.32
2022-08-25T04:58:30.870Z,13.37
2022-08-25T05:01:08.776Z,13.46
2022-08-25T05:03:36.124Z,13.46
2022-08-25T05:06:03.652Z,13.55
2022-08-25T05:08:31.427Z,13.46
2022-08-25T05:10:58.767Z,13.48
2022-08-25T05:13:26.238Z,13.51
2022-08-25T05:15:58.400Z,13.44
2022-08-25T05:18:30.433Z,13.44
2022-08-25T05:21:01.364Z,13.52
2022-08-25T05:23:28.181Z,13.52
2022-08-25T05:25:54.890Z,13.69
2022-08-25T05:28:21.831Z,13.80
2022-08-25T05:30:51.257Z,13.88
2022-08-25T05:33:18.537Z,13.96
2022-08-25T05:35:45.223Z,13.94
2022-08-25T05:38:15.594Z,13.99
2022-08-25T05:40:42.684Z,14.14
2022-08-25T05:43:10.510Z,14.16
2022-08-25T05:45:37.343Z,14.12
2022-08-25T05:48:04.235Z,14.25
2022-08-25T05:50:30.995Z,14.28
2022-08-25T05:52:57.650Z,14.60
2022-08-25T05:55:24.434Z,14.79
2022-08-25T05:57:51.258Z,14.93
2022-08-25T06:00:18.891Z,14.95
2022-08-25T06:02:46.942Z,15.03
2022-08-25T06:05:21.720Z,14.99
2022-08-25T06:07:50.912Z,15.20
2022-08-25T06:10:20.382Z,15.67
2022-08-25T06:12:47.600Z,15.73
2022-08-25T06:15:21.659Z,15.34
2022-08-25T06:17:49.300Z,15.30
2022-08-25T06:20:22.041Z,15.42
2022-08-25T06:22:52.478Z,15.52
2022-08-25T06:25:21.842Z,15.53
2022-08-25T06:27:49.042Z,15.63
2022-08-25T06:30:24.042Z,15.59
2022-08-25T06:32:52.153Z,15.73
2022-08-25T06:35:19.845Z,15.74
2022-08-25T06:37:47.107Z,15.51
2022-08-25T06:40:15.998Z,15.50
2022-08-25T06:42:42.853Z,15.62
2022-08-25T06:45:10.195Z,15.57
2022-08-25T06:47:37.533Z,15.67
2022-08-25T06:50:05.098Z,15.70
2022-08-25T06:52:32.143Z,15.70
2022-08-25T06:54:58.970Z,16.03
2022-08-25T06:57:25.800Z,16.40
2022-08-25T06:59:53.723Z,16.38
2022-08-25T07:02:21.864Z,16.24
2022-08-25T07:04:49.338Z,16.91
2022-08-25T07:07:16.139Z,17.03
2022-08-25T07:09:43.150Z,16.79
2022-08-25T07:12:09.964Z,16.76
2022-08-25T07:14:37.097Z,16.53
2022-08-25T07:17:10.461Z,16.27
2022-08-25T07:19:40.936Z,16.46
2022-08-25T07:22:09.357Z,16.90
2022-08-25T07:24:36.323Z,17.51
2022-08-25T07:27:03.213Z,17.45
2022-08-25T07:29:32.678Z,17.69
2022-08-25T07:32:03.854Z,17.27
2022-08-25T07:34:52.288Z,17.92
2022-08-25T07:37:38.338Z,18.60
2022-08-25T07:40:08.823Z,18.31
2022-08-25T07:42:36.184Z,19.07
2022-08-25T07:45:07.339Z,19.29
2022-08-25T07:47:34.899Z,19.21
2022-08-25T07:50:01.963Z,19.31
2022-08-25T07:52:28.833Z,19.76
2022-08-25T07:54:55.973Z,19.71
2022-08-25T07:57:24.811Z,19.22
2022-08-25T07:59:51.641Z,19.17
2022-08-25T08:02:19.505Z,20.00
2022-08-25T08:04:51.118Z,20.45
2022-08-25T08:07:24.003Z,20.67
2022-08-25T08:10:33.223Z,20.56
2022-08-25T08:12:57.065Z,20.29
2022-08-25T08:15:24.020Z,20.38
2022-08-25T08:17:52.788Z,20.33
2022-08-25T08:20:23.239Z,20.46
2022-08-25T08:22:50.603Z,20.67
2022-08-25T08:25:21.173Z,20.53
2022-08-25T08:27:49.083Z,21.08
2022-08-25T08:30:16.737Z,21.25
2022-08-25T08:33:08.661Z,20.89
2022-08-25T08:35:30.802Z,20.95
2022-08-25T08:37:57.580Z,20.85
2022-08-25T08:40:24.645Z,21.64
2022-08-25T08:43:07.148Z,21.57
2022-08-25T08:45:54.015Z,21.61
2022-08-25T08:48:45.225Z,22.10
2022-08-25T08:51:35.196Z,22.54
2022-08-25T08:54:20.580Z,22.49
2022-08-25T08:56:51.183Z,21.93
2022-08-25T08:59:28.879Z,21.63
2022-08-25T09:02:02.016Z,21.90
2022-08-25T09:04:44.539Z,22.02
2022-08-25T09:07:23.340Z,22.80
2022-08-25T09:09:52.253Z,22.59
2022-08-25T09:12:34.811Z,22.55
2022-08-25T09:15:19.818Z,22.81
2022-08-25T09:18:15.995Z,23.35
2022-08-25T09:20:48.780Z,22.64
2022-08-25T09:23:40.939Z,23.15
2022-08-25T09:26:29.450Z,23.26
2022-08-25T09:29:21.577Z,23.33
2022-08-25T09:31:48.879Z,24.00
2022-08-25T09:34:25.088Z,24.26
2022-08-25T09:36:53.518Z,24.03
2022-08-25T09:39:21.143Z,24.07
2022-08-25T09:41:56.143Z,24.73
2022-08-25T09:44:36.404Z,23.73
2022-08-25T09:47:15.551Z,24.00
2022-08-25T09:49:49.476Z,24.02
2022-08-25T09:52:28.792Z,23.99
2022-08-25T09:54:57.348Z,24.56
2022-08-25T09:57:35.910Z,24.75
2022-08-25T10:00:17.101Z,24.62
2022-08-25T10:02:47.200Z,24.40
2022-08-25T10:05:19.378Z,24.69
2022-08-25T10:08:00.247Z,24.79
2022-08-25T10:10:35.312Z,24.74
2022-08-25T10:13:06.135Z,24.87
2022-08-25T10:15:36.439Z,24.99
2022-08-25T10:18:26.155Z,25.54
2022-08-25T10:21:14.844Z,25.20
2022-08-25T10:23:51.682Z,24.94
2022-08-25T10:26:47.822Z,25.28
2022-08-25T10:29:37.759Z,25.62
2022-08-25T10:32:12.250Z,25.43
2022-08-25T10:34:51.875Z,24.62
2022-08-25T10:37:44.260Z,25.29
2022-08-25T10:40:54.649Z,24.99
2022-08-25T10:43:27.632Z,24.78
2022-08-25T10:46:10.602Z,25.68
2022-08-25T10:48:50.538Z,26.21
2022-08-25T10:51:37.404Z,26.32
2022-08-25T10:54:13.120Z,26.15
2022-08-25T10:56:53.066Z,26.23
2022-08-25T10:59:35.662Z,26.12
2022-08-25T11:02:41.484Z,26.37
2022-08-25T11:05:08.421Z,26.41
2022-08-25T11:07:38.951Z,26.56
2022-08-25T11:10:10.600Z,26.53
2022-08-25T11:12:47.549Z,26.55
2022-08-25T11:15:23.262Z,26.94
2022-08-25T11:18:03.733Z,27.27
2022-08-25T11:20:39.029Z,26.62
2022-08-25T11:23:12.562Z,26.90
2022-08-25T11:25:44.782Z,27.21
2022-08-25T11:28:31.742Z,27.41
2022-08-25T11:31:01.012Z,26.93
2022-08-25T11:33:30.558Z,26.91
2022-08-25T11:36:33.752Z,27.10
2022-08-25T11:39:05.178Z,27.19
2022-08-25T11:41:51.112Z,27.56
2022-08-25T11:44:38.272Z,27.82
2022-08-25T11:47:28.667Z,27.71
2022-08-25T11:50:02.172Z,27.35
2022-08-25T11:52:35.115Z,27.89
2022-08-25T11:55:15.103Z,27.74
2022-08-25T11:57:43.302Z,27.96
2022-08-25T12:00:20.741Z,28.30
2022-08-25T12:02:50.614Z,28.30
2022-08-25T12:05:17.608Z,27.78
2022-08-25T12:07:47.271Z,27.49
2022-08-25T12:10:22.613Z,27.65
2022-08-25T12:12:49.530Z,27.64
2022-08-25T12:15:32.741Z,28.06
2022-08-25T12:18:24.573Z,27.34
2022-08-25T12:21:12.502Z,27.61
2022-08-25T12:23:44.916Z,27.76
2022-08-25T12:26:23.960Z,27.99
2022-08-25T12:29:21.379Z,28.09
2022-08-25T12:32:04.289Z,27.70
2022-08-25T12:34:38.387Z,27.96
2022-08-25T12:37:13.380Z,28.48
2022-08-25T12:39:47.148Z,28.34
2022-08-25T12:42:29.644Z,28.00
2022-08-25T12:45:14.291Z,28.28
2022-08-25T12:47:44.990Z,27.98
2022-08-25T12:50:40.992Z,27.71
2022-08-25T12:53:35.395Z,27.81
2022-08-25T12:56:17.480Z,27.99
2022-08-25T12:59:12.611Z,28.10
2022-08-25T13:02:08.140Z,28.04
2022-08-25T13:05:05.580Z,28.16
2022-08-25T13:08:04.811Z,28.30
2022-08-25T13:10:48.510Z,28.06
2022-08-25T13:13:44.781Z,27.95
2022-08-25T13:16:29.594Z,27.54
2022-08-25T13:18:59.644Z,27.45
2022-08-25T13:21:41.682Z,27.41
2022-08-25T13:24:24.939Z,27.35
2022-08-25T13:26:58.218Z,27.50
2022-08-25T13:29:35.096Z,27.60
2022-08-25T13:32:12.660Z,27.33
2022-08-25T13:34:42.787Z,27.26
2022-08-25T13:37:29.526Z,26.94
2022-08-25T13:40:24.805Z,26.98
2022-08-25T13:42:59.569Z,27.05
2022-08-25T13:45:31.968Z,26.74
2022-08-25T13:47:59.081Z,26.85
2022-08-25T13:50:26.359Z,26.88
2022-08-25T13:52:58.941Z,26.98
2022-08-25T13:55:50.407Z,27.09
2022-08-25T13:58:24.374Z,27.48
2022-08-25T14:01:48.993Z,27.21
2022-08-25T14:04:32.889Z,26.79
2022-08-25T14:07:13.018Z,26.39
2022-08-25T14:09:46.767Z,25.88
2022-08-25T14:15:10.678Z,25.72
2022-08-25T14:17:40.877Z,25.59
2022-08-25T14:20:20.648Z,25.55
2022-08-25T14:22:50.181Z,25.16
2022-08-25T14:25:17.119Z,24.87
2022-08-25T14:28:06.391Z,24.89
2022-08-25T14:30:35.010Z,24.59
2022-08-25T14:33:02.669Z,24.77
2022-08-25T14:35:29.797Z,24.64
2022-08-25T14:37:58.348Z,24.50
2022-08-25T14:40:25.234Z,24.35
2022-08-25T14:42:52.119Z,24.52
2022-08-25T14:45:19.697Z,24.42
2022-08-25T14:47:48.378Z,24.37
2022-08-25T14:50:17.408Z,24.38
2022-08-25T14:52:47.090Z,24.24
2022-08-25T14:55:13.888Z,24.04
2022-08-25T14:57:57.606Z,23.84
2022-08-25T15:00:25.858Z,23.89
2022-08-25T15:02:53.257Z,23.78
2022-08-25T15:05:24.868Z,23.71
2022-08-25T15:08:12.292Z,23.56
2022-08-25T15:10:40.369Z,23.62
2022-08-25T15:13:07.400Z,23.63
2022-08-25T15:15:38.311Z,23.66
2022-08-25T15:18:05.678Z,23.58
2022-08-25T15:20:33.030Z,23.53
2022-08-25T15:23:00.057Z,23.55
2022-08-25T15:25:27.549Z,23.40
2022-08-25T15:27:54.425Z,23.43
2022-08-25T15:30:21.730Z,23.36
2022-08-25T15:32:57.767Z,23.33
2022-08-25T15:35:29.143Z,23.31
2022-08-25T15:37:56.198Z,23.08
2022-08-25T15:40:23.164Z,23.19
2022-08-25T15:42:50.069Z,23.03
2022-08-25T15:45:17.099Z,23.05
2022-08-25T15:47:45.109Z,22.97
2022-08-25T15:50:14.982Z,22.92
2022-08-25T15:52:46.477Z,22.87
2022-08-25T15:55:15.389Z,22.91
2022-08-25T15:57:42.575Z,22.68
2022-08-25T16:00:12.079Z,22.58
2022-08-25T16:02:40.756Z,22.61
2022-08-25T16:05:09.073Z,22.62
2022-08-25T16:07:35.950Z,22.73
2022-08-25T16:10:04.239Z,22.76
2022-08-25T16:12:31.742Z,22.87
2022-08-25T16:14:58.669Z,22.72
2022-08-25T16:17:26.831Z,22.61
2022-08-25T16:19:53.658Z,22.62
2022-08-25T16:22:20.532Z,22.44
2022-08-25T16:24:48.068Z,22.44
2022-08-25T16:27:15.308Z,22.30
2022-08-25T16:29:44.041Z,22.28
2022-08-25T16:32:13.380Z,22.30
2022-08-25T16:34:41.016Z,22.21
2022-08-25T16:37:08.726Z,22.23
2022-08-25T16:39:36.136Z,22.29
2022-08-25T16:42:06.874Z,22.25
2022-08-25T16:44:34.558Z,22.29
2022-08-25T16:47:01.616Z,22.18
2022-08-25T16:49:28.578Z,22.06
2022-08-25T16:51:57.260Z,21.99
2022-08-25T16:54:44.085Z,22.08
2022-08-25T16:57:11.133Z,22.04
2022-08-25T16:59:38.021Z,22.04
2022-08-25T17:02:06.609Z,21.98
2022-08-25T17:04:33.530Z,21.98
2022-08-25T17:07:00.549Z,21.91
2022-08-25T17:09:29.711Z,21.95
2022-08-25T17:11:57.398Z,21.91
2022-08-25T17:14:24.538Z,21.85
2022-08-25T17:16:54.781Z,21.75
2022-08-25T17:19:23.752Z,21.78
2022-08-25T17:21:51.337Z,21.66
2022-08-25T17:24:18.279Z,21.54
2022-08-25T17:26:47.320Z,21.51
2022-08-25T17:29:17.435Z,21.36
2022-08-25T17:31:46.364Z,21.47
2022-08-25T17:34:16.755Z,21.46
2022-08-25T17:36:47.104Z,21.35
2022-08-25T17:39:18.318Z,21.19
2022-08-25T17:41:45.279Z,20.80
2022-08-25T17:44:13.088Z,20.62
2022-08-25T17:46:47.209Z,20.72
2022-08-25T17:49:15.513Z,20.69
2022-08-25T17:51:42.643Z,20.84
2022-08-25T17:54:09.671Z,20.77
2022-08-25T17:56:37.801Z,20.71
2022-08-25T17:59:04.577Z,20.79
2022-08-25T18:01:33.396Z,20.85
2022-08-25T18:04:00.525Z,20.82
2022-08-25T18:06:29.659Z,20.77
2022-08-25T18:08:59.936Z,20.73
2022-08-25T18:11:28.877Z,20.66
2022-08-25T18:13:57.261Z,20.66
2022-08-25T18:16:24.649Z,20.70
2022-08-25T18:18:51.751Z,20.78
2022-08-25T18:21:20.729Z,20.69
2022-08-25T18:23:49.475Z,20.61
2022-08-25T18:26:16.277Z,20.61
2022-08-25T18:28:43.884Z,20.57
2022-08-25T18:31:13.125Z,20.57
2022-08-25T18:33:42.225Z,20.59
2022-08-25T18:36:10.189Z,20.49
2022-08-25T18:38:57.947Z,20.46
2022-08-25T18:41:26.497Z,20.48
2022-08-25T18:43:53.432Z,20.36
2022-08-25T18:46:22.688Z,20.31
2022-08-25T18:48:49.973Z,20.30
2022-08-25T18:51:23.032Z,20.21
2022-08-25T18:53:50.993Z,20.09
2022-08-25T18:56:19.167Z,20.15
2022-08-25T18:58:47.707Z,20.14
2022-08-25T19:01:16.175Z,20.11
2022-08-25T19:03:44.503Z,20.06
2022-08-25T19:06:11.496Z,20.07
2022-08-25T19:08:41.915Z,20.05
2022-08-25T19:11:10.021Z,20.15
2022-08-25T19:13:37.792Z,20.10
2022-08-25T19:16:12.539Z,20.01
2022-08-25T19:18:41.623Z,20.06
2022-08-25T19:21:08.845Z,20.11
2022-08-25T19:23:38.238Z,20.16
2022-08-25T19:26:14.019Z,20.07
2022-08-25T19:28:45.746Z,20.02
2022-08-25T19:31:15.537Z,20.02
2022-08-25T19:33:46.151Z,19.96
2022-08-25T19:36:13.665Z,19.97
2022-08-25T19:38:41.291Z,19.98
2022-08-25T19:41:10.420Z,19.84
2022-08-25T19:43:55.713Z,19.72
2022-08-25T19:46:33.161Z,19.72
2022-08-25T19:49:21.517Z,19.73
2022-08-25T19:51:51.379Z,19.72
2022-08-25T19:54:24.666Z,19.74
2022-08-25T19:56:54.755Z,19.70
2022-08-25T19:59:25.428Z,19.63
2022-08-25T20:01:52.760Z,19.67
2022-08-25T20:04:20.132Z,19.71
2022-08-25T20:06:48.310Z,19.79
2022-08-25T20:09:35.732Z,19.81
2022-08-25T20:12:02.985Z,19.71
2022-08-25T20:14:29.819Z,19.80
2022-08-25T20:16:56.480Z,19.71
2022-08-25T20:19:23.128Z,19.64
2022-08-25T20:21:49.869Z,19.59
2022-08-25T20:24:35.388Z,19.45
2022-08-25T20:27:03.611Z,19.56
2022-08-25T20:29:31.183Z,19.61
2022-08-25T20:31:58.911Z,19.45
2022-08-25T20:34:28.589Z,19.41
2022-08-25T20:36:55.709Z,19.42
2022-08-25T20:39:22.847Z,19.33
2022-08-25T20:41:49.521Z,19.40
2022-08-25T20:44:17.373Z,19.34
2022-08-25T20:46:44.668Z,19.36
2022-08-25T20:49:11.862Z,19.32
2022-08-25T20:51:38.818Z,19.31
2022-08-25T20:54:05.625Z,19.29
2022-08-25T20:56:32.443Z,19.29
2022-08-25T20:58:59.728Z,19.26
2022-08-25T21:01:42.330Z,19.18
2022-08-25T21:04:11.549Z,19.11
2022-08-25T21:06:41.531Z,19.10
2022-08-25T21:09:14.188Z,19.18
2022-08-25T21:11:42.800Z,19.18
2022-08-25T21:14:10.000Z,19.13
2022-08-25T21:16:37.998Z,19.09
2022-08-25T21:19:09.043Z,19.06
2022-08-25T21:21:38.679Z,18.98
2022-08-25T21:24:09.800Z,18.90
2022-08-25T21:26:37.623Z,18.83
2022-08-25T21:29:15.410Z,18.93
2022-08-25T21:31:42.625Z,18.94
2022-08-25T21:34:10.941Z,18.97
2022-08-25T21:36:39.098Z,19.00
2022-08-25T21:39:05.767Z,18.95
2022-08-25T21:41:34.156Z,18.96
2022-08-25T21:44:04.539Z,18.95
2022-08-25T21:46:32.984Z,18.93
2022-08-25T21:49:01.325Z,18.93
2022-08-25T21:51:40.829Z,18.84
2022-08-25T21:54:10.946Z,18.87
2022-08-25T21:56:40.911Z,18.91
2022-08-25T21:59:15.043Z,18.89
2022-08-25T22:01:42.620Z,18.87
2022-08-25T22:04:10.528Z,18.79
2022-08-25T22:06:38.638Z,18.84
2022-08-25T22:09:06.980Z,18.82
2022-08-25T22:11:36.169Z,18.77
2022-08-25T22:14:05.579Z,18.80
2022-08-25T22:16:35.059Z,18.79
2022-08-25T22:19:03.257Z,18.66
2022-08-25T22:21:30.052Z,18.63
2022-08-25T22:23:58.334Z,18.56
2022-08-25T22:26:29.144Z,18.60
2022-08-25T22:28:57.329Z,18.55
2022-08-25T22:31:24.560Z,18.54
2022-08-25T22:33:52.098Z,18.50
2022-08-25T22:36:24.747Z,18.46
2022-08-25T22:38:53.016Z,18.38
2022-08-25T22:41:21.358Z,18.44
2022-08-25T22:43:49.173Z,18.46
2022-08-25T22:46:15.924Z,18.46
2022-08-25T22:48:44.453Z,18.48
2022-08-25T22:51:18.571Z,18.38
2022-08-25T22:53:47.257Z,18.39
2022-08-25T22:56:17.174Z,18.29
2022-08-25T22:58:51.526Z,18.23
2022-08-25T23:01:20.150Z,18.23
2022-08-25T23:03:47.619Z,18.16
2022-08-25T23:06:22.129Z,18.13
2022-08-25T23:08:53.833Z,18.22
2022-08-25T23:11:23.564Z,18.18
2022-08-25T23:13:51.080Z,18.17
2022-08-25T23:16:18.069Z,18.19
2022-08-25T23:18:46.949Z,18.16
2022-08-25T23:21:37.957Z,18.17
2022-08-25T23:24:08.909Z,18.11
2022-08-25T23:26:38.184Z,18.00
2022-08-25T23:29:18.603Z,18.01
2022-08-25T23:31:46.943Z,17.94
2022-08-25T23:34:15.708Z,17.96
2022-08-25T23:36:43.864Z,17.94
2022-08-25T23:39:11.195Z,17.85
2022-08-25T23:41:37.989Z,17.92
2022-08-25T23:44:09.345Z,17.81
2022-08-25T23:46:39.520Z,17.85
2022-08-25T23:49:08.183Z,17.83
2022-08-25T23:51:37.140Z,17.82
2022-08-25T23:54:09.648Z,17.72
2022-08-25T23:56:44.790Z,17.76
2022-08-25T23:59:19.569Z,17.82
